Time;durP1;ratioP1;P1;durP2;ratioP2;P2;SDS_P1;SDS_P2;PMS_P1;PMS_P2;Temp;Humidity;BMP_temperature;BMP_pressure;BME280_temperature;BME280_humidity;BME280_pressure;Samples;Min_cycle;Max_cycle;Signal;HPM_P1;HPM_P2
2022/10/21 00:01:15;;;;;;;43.67;19.60;;;;;;;14.19;100.00;99455.59;12228039;19;20015;-79
2022/10/21 00:05:18;;;;;;;33.25;17.38;;;;;;;14.19;100.00;99438.97;12199392;19;20014;-81
2022/10/21 00:09:20;;;;;;;38.10;16.85;;;;;;;14.15;100.00;99444.25;12223887;19;20011;-81
2022/10/21 00:13:22;;;;;;;32.85;15.65;;;;;;;14.10;100.00;99414.66;12198756;19;20046;-78
2022/10/21 00:17:24;;;;;;;;;;;;;;;14.03;100.00;99397.47;12223838;19;20492;-81
2022/10/21 00:21:26;;;;;;;24.98;12.25;;;;;;;13.99;100.00;99413.03;12220142;19;19919;-79
2022/10/21 00:25:27;;;;;;;27.35;11.88;;;;;;;14.00;100.00;99406.34;12197893;19;20388;-81
2022/10/21 00:29:29;;;;;;;23.60;12.10;;;;;;;14.04;100.00;99421.31;12221198;19;20038;-81
2022/10/21 00:33:31;;;;;;;25.13;11.52;;;;;;;14.07;100.00;99420.75;12213272;19;20030;-80
2022/10/21 00:37:32;;;;;;;24.08;10.18;;;;;;;14.12;100.00;99426.25;12197424;19;20013;-80
2022/10/21 00:41:34;;;;;;;17.08;8.27;;;;;;;14.21;100.00;99429.28;12214494;19;20018;-78
2022/10/21 00:45:36;;;;;;;22.80;8.85;;;;;;;14.32;100.00;99421.75;12218825;19;20014;-82
2022/10/21 00:49:55;;;;;;;19.95;8.45;;;;;;;14.39;100.00;99421.44;12196663;19;20010;-79
2022/10/21 00:53:58;;;;;;;27.95;9.60;;;;;;;14.46;100.00;99410.91;12216398;19;20019;-81
2022/10/21 00:58:01;;;;;;;21.48;9.05;;;;;;;14.52;100.00;99405.06;12221761;19;20014;-79
2022/10/21 01:02:03;;;;;;;20.67;9.23;;;;;;;14.53;100.00;99395.63;12242078;19;20010;-78
2022/10/21 01:06:08;;;;;;;35.83;11.67;;;;;;;14.57;100.00;99371.78;12218337;19;20014;-82
2022/10/21 01:10:09;;;;;;;32.38;10.50;;;;;;;14.65;100.00;99367.53;12217426;19;20006;-81
2022/10/21 01:14:47;;;;;;;24.35;10.50;;;;;;;14.72;100.00;99359.75;12191440;19;20014;-80
2022/10/21 01:19:26;;;;;;;26.05;9.57;;;;;;;14.80;100.00;99349.97;12211154;19;20038;-81
2022/10/21 01:23:56;;;;;;;25.58;9.18;;;;;;;14.85;100.00;99341.63;12189618;19;20084;-80
2022/10/21 01:28:31;;;;;;;24.08;7.60;;;;;;;14.92;100.00;99308.81;12216091;19;20006;-80
2022/10/21 01:33:08;;;;;;;25.38;8.52;;;;;;;14.95;100.00;99294.34;12189940;19;20038;-79
2022/10/21 01:37:48;;;;;;;21.02;7.55;;;;;;;14.98;100.00;99335.38;12208419;19;20084;-80
2022/10/21 01:41:52;;;;;;;19.20;8.10;;;;;;;14.91;100.00;99328.53;12106425;19;2004390;-80
2022/10/21 01:46:00;;;;;;;26.88;8.27;;;;;;;14.85;100.00;99316.66;12211747;19;20010;-81
2022/10/21 01:50:22;;;;;;;21.05;8.32;;;;;;;14.80;100.00;99323.06;12184461;19;20010;-81
2022/10/21 01:54:35;;;;;;;23.30;9.18;;;;;;;14.76;100.00;99327.53;12210695;19;20011;-79
2022/10/21 01:58:40;;;;;;;22.63;9.40;;;;;;;14.72;100.00;99317.28;12200643;19;20038;-80
2022/10/21 02:02:46;;;;;;;28.95;11.20;;;;;;;14.69;100.00;99298.47;12231042;19;20007;-80
2022/10/21 02:06:48;;;;;;;30.88;12.07;;;;;;;14.68;100.00;99307.91;12225651;19;20015;-81
2022/10/21 02:10:55;;;;;;;32.47;12.65;;;;;;;14.67;100.00;99295.16;12198770;19;20014;-79
2022/10/21 02:15:01;;;;;;;37.33;12.15;;;;;;;14.63;100.00;99292.13;12211932;19;20006;-82
2022/10/21 02:19:03;;;;;;;29.30;10.85;;;;;;;14.57;100.00;99310.78;12215325;19;20019;-80
2022/10/21 02:23:07;;;;;;;33.83;12.67;;;;;;;14.48;100.00;99309.66;12190273;19;20014;-82
2022/10/21 02:27:09;;;;;;;33.50;11.10;;;;;;;14.40;100.00;99304.75;12215448;19;20014;-80
2022/10/21 02:31:41;;;;;;;32.03;10.23;;;;;;;14.33;100.00;99304.22;12215860;19;20015;-79
2022/10/21 02:36:09;;;;;;;25.05;9.65;;;;;;;14.25;100.00;99293.78;12190150;19;20763;-79
2022/10/21 02:40:17;;;;;;;33.92;10.50;;;;;;;14.16;100.00;99289.91;12213598;19;20034;-81
2022/10/21 02:44:18;;;;;;;30.15;8.52;;;;;;;14.09;100.00;99277.22;12190743;19;20049;-81
2022/10/21 02:48:20;;;;;;;20.00;6.90;;;;;;;14.04;100.00;99265.34;12209532;19;20003;-80
2022/10/21 02:52:22;;;;;;;29.58;8.20;;;;;;;13.97;100.00;99271.19;12189043;19;20003;-80
2022/10/21 02:56:25;;;;;;;36.90;12.00;;;;;;;13.89;100.00;99274.56;12210022;19;20018;-82
2022/10/21 03:00:27;;;;;;;35.22;10.93;;;;;;;13.86;100.00;99284.28;12208857;19;20021;-80
2022/10/21 03:04:33;;;;;;;33.53;11.70;;;;;;;13.81;100.00;99277.94;12184883;19;20787;-81
2022/10/21 03:08:35;;;;;;;39.58;13.00;;;;;;;13.77;100.00;99279.59;12211003;19;20465;-80
2022/10/21 03:12:36;;;;;;;43.40;14.90;;;;;;;13.75;100.00;99270.78;12206890;19;20038;-80
2022/10/21 03:16:38;;;;;;;43.67;12.80;;;;;;;13.74;100.00;99260.78;12185310;19;20108;-82
2022/10/21 03:20:39;;;;;;;40.45;13.00;;;;;;;13.73;100.00;99248.06;12208183;19;20011;-80
2022/10/21 03:24:41;;;;;;;37.22;12.65;;;;;;;13.71;100.00;99228.94;12207438;19;20036;-81
2022/10/21 03:28:42;;;;;;;43.80;13.27;;;;;;;13.73;100.00;99234.22;12188089;19;20366;-80
2022/10/21 03:32:44;;;;;;;40.00;12.85;;;;;;;13.71;100.00;99237.25;12206966;19;20010;-79
2022/10/21 03:36:46;;;;;;;37.90;13.10;;;;;;;13.66;100.00;99246.44;12206046;19;20041;-82
2022/10/21 03:40:49;;;;;;;37.72;12.57;;;;;;;13.60;100.00;99247.56;12184963;19;20701;-83
2022/10/21 03:44:51;;;;;;;34.83;11.13;;;;;;;13.56;100.00;99240.94;12205776;19;20003;-81
2022/10/21 03:48:53;;;;;;;33.13;11.98;;;;;;;13.53;100.00;99238.72;12207049;19;20039;-81
2022/10/21 03:52:54;;;;;;;44.80;14.18;;;;;;;13.51;100.00;99240.97;12184455;19;20026;-81
2022/10/21 03:56:56;;;;;;;35.97;13.15;;;;;;;13.51;100.00;99256.75;12206073;19;20019;-81
2022/10/21 04:00:57;;;;;;;38.63;13.43;;;;;;;13.52;100.00;99250.09;12206378;19;20010;-82
2022/10/21 04:04:59;;;;;;;40.90;14.68;;;;;;;13.52;100.00;99248.16;12183158;19;20006;-81
2022/10/21 04:09:01;;;;;;;55.45;16.05;;;;;;;13.52;100.00;99250.09;12209638;19;20006;-82
2022/10/21 04:13:03;;;;;;;46.92;15.13;;;;;;;13.53;100.00;99244.25;12214268;19;20475;-82
2022/10/21 04:17:04;;;;;;;59.78;17.15;;;;;;;13.54;100.00;99245.13;12198276;19;20488;-81
2022/10/21 04:21:08;;;;;;;56.78;15.50;;;;;;;13.52;100.00;99234.31;12220072;19;20023;-83
2022/10/21 04:25:10;;;;;;;40.10;15.25;;;;;;;13.53;100.00;99221.28;12215172;19;20014;-83
2022/10/21 04:29:11;;;;;;;42.92;13.93;;;;;;;13.53;100.00;99222.13;12194684;19;20373;-83
2022/10/21 04:33:13;;;;;;;47.70;15.90;;;;;;;13.56;100.00;99216.00;12217255;19;20017;-80
2022/10/21 04:37:15;;;;;;;68.10;19.08;;;;;;;13.60;100.00;99217.13;12219140;19;20148;-83
2022/10/21 04:41:17;;;;;;;66.82;19.95;;;;;;;13.64;100.00;99207.13;12196805;19;20042;-83
2022/10/21 04:45:19;;;;;;;53.47;16.52;;;;;;;13.71;100.00;99205.97;12216618;19;20018;-82
2022/10/21 04:49:20;;;;;;;62.33;19.13;;;;;;;13.73;100.00;99203.75;12205184;19;20003;-79
2022/10/21 04:53:22;;;;;;;66.30;19.50;;;;;;;13.77;100.00;99210.38;12216902;19;20003;-84
2022/10/21 04:57:24;;;;;;;66.68;19.73;;;;;;;13.82;100.00;99213.13;12217947;19;20018;-81
2022/10/21 05:01:26;;;;;;;74.78;21.88;;;;;;;13.87;100.00;99200.06;12194402;19;20010;-81
2022/10/21 05:05:29;;;;;;;73.10;22.20;;;;;;;13.89;100.00;99188.69;12268145;19;20017;-80
2022/10/21 05:09:31;;;;;;;69.10;21.67;;;;;;;13.96;100.00;99196.72;12258058;19;20407;-83
2022/10/21 05:13:32;;;;;;;69.38;20.58;;;;;;;14.00;100.00;99189.47;12197797;19;20489;-83
2022/10/21 05:17:35;;;;;;;69.43;20.05;;;;;;;14.03;100.00;99189.72;12222359;19;20014;-80
2022/10/21 05:21:38;;;;;;;67.50;21.00;;;;;;;14.04;100.00;99183.06;12215588;19;20367;-82
2022/10/21 05:25:39;;;;;;;51.20;17.10;;;;;;;14.07;100.00;99176.13;12197856;19;20019;-82
2022/10/21 05:29:41;;;;;;;58.95;20.15;;;;;;;14.07;100.00;99170.59;12222140;19;20014;-84
2022/10/21 05:33:43;;;;;;;75.55;23.77;;;;;;;13.99;100.00;99174.78;12219955;19;20067;-81
2022/10/21 05:37:44;;;;;;;72.25;24.00;;;;;;;14.03;100.00;99147.34;12198095;19;20006;-80
2022/10/21 05:41:46;;;;;;;78.90;22.98;;;;;;;14.05;100.00;99151.47;12217904;19;20010;-82
2022/10/21 05:45:48;;;;;;;77.60;22.95;;;;;;;14.06;100.00;99155.06;12227259;19;20665;-79
2022/10/21 05:49:51;;;;;;;41.08;16.05;;;;;;;14.11;100.00;99160.59;12195526;19;20561;-82
2022/10/21 05:53:54;;;;;;;72.40;21.50;;;;;;;14.19;100.00;99167.44;12213880;19;20077;-83
2022/10/21 05:57:55;;;;;;;52.20;18.25;;;;;;;14.25;100.00;99172.66;12218517;19;20023;-83
2022/10/21 06:01:59;;;;;;;59.63;20.05;;;;;;;14.30;100.00;99169.00;12189555;19;20006;-80
2022/10/21 06:06:05;;;;;;;43.25;16.73;;;;;;;14.34;100.00;99176.47;12213763;19;20018;-82
2022/10/21 06:10:07;;;;;;;62.47;25.38;;;;;;;14.40;100.00;99190.28;12213456;19;20014;-80
2022/10/21 06:14:09;;;;;;;48.75;18.20;;;;;;;14.43;100.00;99198.03;12190856;19;20398;-81
2022/10/21 06:18:10;;;;;;;46.38;17.55;;;;;;;14.46;100.00;99192.72;12211562;19;20051;-83
2022/10/21 06:22:12;;;;;;;41.35;17.10;;;;;;;14.49;100.00;99188.53;12213465;19;20038;-82
2022/10/21 06:26:15;;;;;;;35.15;16.50;;;;;;;14.49;100.00;99172.72;12191375;19;20080;-81
2022/10/21 06:30:16;;;;;;;;;;;;;;;14.51;100.00;99177.97;12249799;19;20019;-78
2022/10/21 06:34:18;;;;;;;46.75;16.27;;;;;;;14.55;100.00;99184.63;12264909;19;19906;-78
2022/10/21 06:38:20;;;;;;;35.65;15.38;;;;;;;14.54;100.00;99186.56;12235697;19;20405;-80
2022/10/21 06:42:22;;;;;;;45.10;17.00;;;;;;;14.58;100.00;99187.66;12206309;19;20393;-80
2022/10/21 06:46:25;;;;;;;;;;;;;;;14.64;100.00;99193.16;12186075;19;20070;-81
2022/10/21 06:50:45;;;;;;;35.47;14.85;;;;;;;14.70;100.00;99191.97;12202194;19;19934;-81
2022/10/21 06:54:47;;;;;;;44.60;17.05;;;;;;;14.77;100.00;99196.06;12199909;19;20041;-82
2022/10/21 06:58:50;;;;;;;47.83;18.33;;;;;;;14.82;100.00;99209.06;12179411;19;20018;-81
2022/10/21 07:02:51;;;;;;;44.00;17.88;;;;;;;14.85;100.00;99214.00;12197930;19;20011;-82
2022/10/21 07:06:53;;;;;;;42.72;16.20;;;;;;;14.84;100.00;99211.53;12204576;19;20038;-80
2022/10/21 07:10:55;;;;;;;39.28;16.02;;;;;;;14.84;100.00;99214.28;12184264;19;20015;-80
2022/10/21 07:14:56;;;;;;;55.90;19.42;;;;;;;14.80;100.00;99225.16;12207171;19;20007;-79
2022/10/21 07:18:58;;;;;;;39.90;17.33;;;;;;;14.79;100.00;99223.50;12205549;19;20078;-80
2022/10/21 07:23:00;;;;;;;41.30;16.92;;;;;;;14.79;100.00;99245.69;12183159;19;20010;-79
2022/10/21 07:27:01;;;;;;;52.50;18.85;;;;;;;14.77;100.00;99247.91;12199745;19;20006;-83
2022/10/21 07:31:04;;;;;;;42.50;17.67;;;;;;;14.77;100.00;99250.69;12209571;19;20027;-81
2022/10/21 07:35:06;;;;;;;40.97;15.90;;;;;;;14.80;100.00;99245.38;12189754;19;19999;-81
2022/10/21 07:39:14;;;;;;;33.92;14.38;;;;;;;14.90;100.00;99250.03;12212398;19;20356;-81
2022/10/21 07:43:15;;;;;;;34.60;13.50;;;;;;;15.02;100.00;99257.94;12200850;19;20074;-83
2022/10/21 07:47:17;;;;;;;37.28;13.98;;;;;;;15.10;100.00;99260.09;12193663;19;20070;-80
2022/10/21 07:51:23;;;;;;;31.88;13.75;;;;;;;15.12;100.00;99249.53;12216525;19;20010;-81
2022/10/21 07:55:40;;;;;;;29.15;13.77;;;;;;;15.22;100.00;99241.06;12194161;19;20014;-81
2022/10/21 07:59:51;;;;;;;27.60;10.90;;;;;;;15.35;100.00;99234.00;12217930;19;20007;-81
2022/10/21 08:03:56;;;;;;;24.05;11.68;;;;;;;15.49;100.00;99234.94;12214813;19;20125;-80
2022/10/21 08:07:58;;;;;;;23.88;10.57;;;;;;;15.62;100.00;99236.19;12196464;19;20007;-80
2022/10/21 08:12:01;;;;;;;26.60;11.38;;;;;;;15.76;100.00;99241.03;12213429;19;20014;-80
2022/10/21 08:16:04;;;;;;;30.08;11.35;;;;;;;15.84;100.00;99229.25;12216777;19;20007;-82
2022/10/21 08:20:06;;;;;;;31.75;11.80;;;;;;;15.93;100.00;99228.28;12194213;19;20094;-81
2022/10/21 08:24:08;;;;;;;28.08;12.32;;;;;;;16.00;100.00;99229.84;12216467;19;20017;-81
2022/10/21 08:28:09;;;;;;;31.15;11.95;;;;;;;16.05;100.00;99229.78;12217024;19;20571;-81
2022/10/21 08:32:11;;;;;;;28.23;11.77;;;;;;;16.05;100.00;99233.41;12194741;19;20010;-81
2022/10/21 08:36:19;;;;;;;26.73;11.40;;;;;;;16.03;100.00;99234.81;12215753;19;20010;-81
2022/10/21 08:40:21;;;;;;;28.52;12.27;;;;;;;16.08;100.00;99237.53;12216123;19;20007;-81
2022/10/21 08:44:45;;;;;;;28.08;10.75;;;;;;;16.15;100.00;99224.06;12194265;19;20011;-81
2022/10/21 08:48:59;;;;;;;27.05;10.25;;;;;;;16.21;100.00;99227.59;12213411;19;20018;-80
2022/10/21 08:53:09;;;;;;;25.20;10.18;;;;;;;16.24;100.00;99227.84;12193138;19;20017;-82
2022/10/21 08:57:11;;;;;;;22.90;9.43;;;;;;;16.26;100.00;99221.97;12209366;19;20018;-82
2022/10/21 09:01:46;;;;;;;24.00;9.50;;;;;;;16.35;100.00;99204.28;12212090;19;20790;-83
2022/10/21 09:06:23;;;;;;;21.30;9.25;;;;;;;16.35;100.00;99229.31;12185750;19;20844;-83
2022/10/21 09:10:44;;;;;;;27.92;10.50;;;;;;;16.41;100.00;99233.66;12199713;19;20023;-83
2022/10/21 09:15:01;;;;;;;19.90;8.70;;;;;;;16.41;100.00;99242.00;12209538;19;20027;-83
2022/10/21 09:19:37;;;;;;;25.95;11.63;;;;;;;16.31;100.00;99256.09;12212184;19;20619;-83
2022/10/21 09:23:51;;;;;;;16.50;7.45;;;;;;;16.29;100.00;99263.88;12190372;19;20014;-84
2022/10/21 09:27:55;;;;;;;13.40;6.85;;;;;;;16.21;100.00;99245.13;12209949;19;20816;-83
2022/10/21 09:36:46;;;;;;;13.60;6.85;;;;;;;16.43;100.00;99249.25;12209663;19;20019;-83
2022/10/21 09:40:58;;;;;;;16.10;6.73;;;;;;;16.47;100.00;99241.94;12187103;19;20025;-84
2022/10/21 09:45:01;;;;;;;17.40;7.25;;;;;;;16.47;100.00;99244.72;12209649;19;20027;-85
2022/10/21 09:49:02;;;;;;;14.73;8.07;;;;;;;16.44;100.00;99253.66;12208895;19;20021;-84
2022/10/21 09:53:33;;;;;;;19.58;8.32;;;;;;;16.38;100.00;99255.69;12186501;19;20023;-84
2022/10/21 09:57:53;;;;;;;17.05;8.13;;;;;;;16.32;100.00;99270.81;12208793;19;20006;-85
2022/10/21 10:01:56;;;;;;;23.75;9.00;;;;;;;16.28;100.00;99269.75;12189345;19;20505;-82
2022/10/21 10:06:01;;;;;;;23.67;10.52;;;;;;;16.22;100.00;99274.56;12207739;19;20007;-84
2022/10/21 10:10:30;;;;;;;22.67;9.77;;;;;;;16.25;100.00;99275.94;12210435;19;20006;-85
2022/10/21 10:14:34;;;;;;;22.80;10.02;;;;;;;16.30;100.00;99282.25;12189392;19;20022;-84
2022/10/21 10:18:36;;;;;;;27.73;10.98;;;;;;;16.52;100.00;99287.19;12208503;19;20027;-83
2022/10/21 10:22:46;;;;;;;19.02;10.55;;;;;;;16.69;100.00;99300.56;12184879;19;20369;-83
2022/10/21 10:26:50;;;;;;;16.73;7.55;;;;;;;16.74;100.00;99308.78;12209166;19;20091;-83
2022/10/21 10:30:54;;;;;;;18.30;8.05;;;;;;;16.85;100.00;99288.06;12213292;19;20035;-82
2022/10/21 10:35:02;;;;;;;15.75;6.90;;;;;;;16.97;100.00;99295.13;12228962;19;20269;-79
2022/10/21 10:39:32;;;;;;;10.95;6.45;;;;;;;16.82;100.00;99299.81;12260784;19;20007;-82
2022/10/21 10:43:43;;;;;;;10.65;5.13;;;;;;;16.77;100.00;99312.97;12186446;19;20027;-83
2022/10/21 10:47:54;;;;;;;8.10;3.88;;;;;;;16.75;100.00;99298.53;12208263;19;20034;-83
2022/10/21 10:52:12;;;;;;;8.43;4.05;;;;;;;16.70;100.00;99302.19;12210470;19;20034;-83
2022/10/21 10:56:21;;;;;;;8.77;3.85;;;;;;;16.76;100.00;99301.00;12187892;19;20010;-81
2022/10/21 11:00:23;;;;;;;7.15;3.67;;;;;;;16.77;100.00;99297.09;12210973;19;20381;-80
2022/10/21 11:05:03;;;;;;;7.65;3.50;;;;;;;16.77;100.00;99308.22;12197597;19;20038;-79
2022/10/21 11:09:06;;;;;;;7.55;3.83;;;;;;;16.67;100.00;99291.69;12207153;19;20062;-83
2022/10/21 11:13:20;;;;;;;8.32;3.58;;;;;;;16.70;100.00;99291.06;12194506;19;20390;-80
2022/10/21 11:17:37;;;;;;;6.90;3.60;;;;;;;16.72;100.00;99266.56;12183098;19;20021;-82
2022/10/21 11:21:39;;;;;;;7.38;4.25;;;;;;;16.80;100.00;99256.72;12209466;19;20030;-83
2022/10/21 11:25:49;;;;;;;7.82;3.95;;;;;;;16.93;100.00;99252.34;12186907;19;20030;-83
2022/10/21 11:30:03;;;;;;;8.63;3.70;;;;;;;17.14;100.00;99242.47;12212099;19;20228;-82
2022/10/21 11:34:18;;;;;;;5.10;2.63;;;;;;;17.21;100.00;99244.84;12210330;19;20042;-81
2022/10/21 11:38:28;;;;;;;5.80;2.55;;;;;;;17.48;100.00;99255.19;12192912;19;20011;-83
2022/10/21 11:42:44;;;;;;;4.95;2.58;;;;;;;17.79;100.00;99265.72;12210401;19;20382;-84
2022/10/21 11:52:11;;;;;;;8.07;1.70;;;;;;;19.47;100.00;99283.16;12215078;19;20021;-81
2022/10/21 11:56:38;;;;;;;5.15;2.00;;;;;;;19.49;100.00;99290.06;12190475;19;20726;-82
2022/10/21 12:00:57;;;;;;;5.35;3.05;;;;;;;19.31;100.00;99299.53;12208334;19;20078;-80
2022/10/21 12:05:11;;;;;;;5.03;2.90;;;;;;;19.44;100.00;99281.81;12186911;19;20030;-81
2022/10/21 12:09:20;;;;;;;4.57;2.95;;;;;;;19.94;100.00;99283.53;12213508;19;20038;-82
2022/10/21 12:13:31;;;;;;;10.07;2.70;;;;;;;20.38;100.00;99276.84;12213192;19;20038;-81
2022/10/21 12:17:33;;;;;;;4.05;2.20;;;;;;;20.39;100.00;99275.69;12191409;19;20014;-82
2022/10/21 12:21:39;;;;;;;5.15;2.13;;;;;;;19.76;100.00;99271.47;12210698;19;20013;-82
2022/10/21 12:25:51;;;;;;;4.75;2.13;;;;;;;19.38;100.00;99290.69;12182938;19;20024;-83
2022/10/21 12:30:15;;;;;;;;;;;;;;;19.50;100.00;99283.31;12212840;19;20102;-83
2022/10/21 12:34:18;;;;;;;4.68;2.15;;;;;;;19.90;100.00;99280.56;12218203;19;19915;-82
2022/10/21 12:38:41;;;;;;;4.60;2.07;;;;;;;19.93;100.00;99276.25;12199004;19;20641;-80
2022/10/21 12:43:00;;;;;;;3.63;2.30;;;;;;;20.39;100.00;99286.88;12219208;19;20247;-83
2022/10/21 12:47:20;;;;;;;5.22;2.20;;;;;;;20.86;100.00;99277.84;12197959;19;20014;-82
2022/10/21 12:51:24;;;;;;;5.60;1.60;;;;;;;21.57;100.00;99291.38;12216241;19;20038;-82
2022/10/21 12:55:27;;;;;;;4.38;1.55;;;;;;;22.10;100.00;99283.53;12201876;19;20778;-81
2022/10/21 12:59:28;;;;;;;;;;;;;;;21.85;100.00;99275.75;12218592;19;20026;-80
2022/10/21 13:03:39;;;;;;;2.58;1.30;;;;;;;21.24;100.00;99279.91;12217622;19;19919;-83
2022/10/21 13:08:22;;;;;;;6.95;1.70;;;;;;;20.67;100.00;99280.97;12194366;19;20030;-81
2022/10/21 13:12:24;;;;;;;3.78;1.45;;;;;;;20.23;100.00;99291.31;12216992;19;20002;-82
2022/10/21 13:16:32;;;;;;;4.60;1.67;;;;;;;19.92;100.00;99283.84;12203769;19;20019;-81
2022/10/21 13:20:37;;;;;;;3.58;1.63;;;;;;;19.95;100.00;99287.97;12218279;19;20010;-82
2022/10/21 13:24:40;;;;;;;5.53;1.88;;;;;;;19.77;100.00;99284.28;12216886;19;20022;-81
2022/10/21 13:29:13;;;;;;;5.03;2.00;;;;;;;19.98;100.00;99274.13;12199760;19;20006;-81
2022/10/21 13:33:20;;;;;;;5.15;1.67;;;;;;;19.91;100.00;99264.59;12217140;19;20007;-80
2022/10/21 13:37:35;;;;;;;4.13;1.58;;;;;;;19.65;100.00;99270.09;12231220;19;20010;-80
2022/10/21 13:41:38;;;;;;;5.20;1.50;;;;;;;19.46;100.00;99265.56;12203129;19;20523;-81
2022/10/21 13:45:50;;;;;;;6.07;1.42;;;;;;;19.59;100.00;99273.00;12226401;19;20022;-81
2022/10/21 13:49:55;;;;;;;4.75;2.00;;;;;;;19.55;100.00;99274.81;12202671;19;20034;-81
2022/10/21 13:54:02;;;;;;;2.22;1.30;;;;;;;19.38;100.00;99276.69;12223337;19;20095;-81
2022/10/21 13:58:04;;;;;;;4.13;1.15;;;;;;;19.12;100.00;99281.00;12228462;19;20010;-82
2022/10/21 14:02:05;;;;;;;3.15;1.35;;;;;;;18.92;100.00;99284.34;12220667;19;20002;-78
2022/10/21 14:06:16;;;;;;;4.03;1.52;;;;;;;18.85;100.00;99281.97;12262278;19;20055;-77
2022/10/21 14:10:18;;;;;;;3.97;1.58;;;;;;;18.96;100.00;99270.56;12270092;19;20007;-78
2022/10/21 14:14:24;;;;;;;3.85;1.77;;;;;;;19.12;100.00;99267.03;12218168;19;20006;-79
2022/10/21 14:18:28;;;;;;;3.80;1.30;;;;;;;18.97;100.00;99267.44;12234045;19;20022;-79
2022/10/21 14:22:34;;;;;;;5.53;1.55;;;;;;;18.76;100.00;99271.88;12213274;19;20011;-79
2022/10/21 14:26:37;;;;;;;3.97;1.60;;;;;;;18.65;100.00;99272.13;12237587;19;20011;-81
2022/10/21 14:30:39;;;;;;;6.22;1.50;;;;;;;18.52;100.00;99256.25;12235618;19;20079;-80
2022/10/21 14:35:08;;;;;;;4.30;1.80;;;;;;;18.49;100.00;99259.66;12209266;19;20014;-80
2022/10/21 14:39:19;;;;;;;5.50;1.60;;;;;;;18.54;100.00;99256.78;12237292;19;20590;-80
2022/10/21 14:43:39;;;;;;;5.57;1.70;;;;;;;18.62;100.00;99257.97;12230704;19;20074;-81
2022/10/21 14:47:48;;;;;;;3.88;1.98;;;;;;;18.50;100.00;99261.34;12209861;19;20103;-79
2022/10/21 14:52:03;;;;;;;3.63;1.85;;;;;;;18.48;100.00;99257.22;12227186;19;20018;-81
2022/10/21 14:56:12;;;;;;;3.58;1.98;;;;;;;18.41;100.00;99260.41;12201431;19;20215;-81
2022/10/21 15:00:40;;;;;;;5.90;1.90;;;;;;;18.33;100.00;99244.47;12226422;19;20007;-80
2022/10/21 15:04:54;;;;;;;6.40;2.05;;;;;;;18.26;100.00;99230.91;12199360;19;20813;-77
2022/10/21 15:08:56;;;;;;;6.60;2.00;;;;;;;18.20;100.00;99233.03;12221724;19;20013;-78
2022/10/21 15:12:59;;;;;;;4.25;1.83;;;;;;;18.16;100.00;99233.97;12212211;19;20014;-77
2022/10/21 15:17:08;;;;;;;4.88;2.47;;;;;;;18.11;100.00;99237.69;12182926;19;20011;-79
2022/10/21 15:21:22;;;;;;;4.85;2.15;;;;;;;18.07;100.00;99245.03;12236075;19;20014;-78
2022/10/21 15:25:24;;;;;;;13.85;2.90;;;;;;;17.95;100.00;99237.22;12230343;19;20006;-77
2022/10/21 15:29:41;;;;;;;10.07;2.90;;;;;;;17.83;100.00;99234.13;12188502;19;20014;-77
2022/10/21 15:33:42;;;;;;;6.93;2.90;;;;;;;17.73;100.00;99242.69;12212014;19;20030;-77
2022/10/21 15:37:50;;;;;;;5.53;2.53;;;;;;;17.59;100.00;99245.47;12188266;19;20074;-77
2022/10/21 15:41:54;;;;;;;7.90;2.70;;;;;;;17.53;100.00;99255.09;12211384;19;20010;-78
2022/10/21 15:45:56;;;;;;;6.47;2.90;;;;;;;17.44;100.00;99243.00;12215419;19;20014;-77
2022/10/21 15:49:58;;;;;;;6.20;2.92;;;;;;;17.36;100.00;99241.75;12195183;19;20094;-77
2022/10/21 15:53:59;;;;;;;10.27;3.75;;;;;;;17.32;100.00;99243.53;12209586;19;20010;-77
2022/10/21 15:58:01;;;;;;;6.22;3.75;;;;;;;17.28;100.00;99246.09;12214020;19;20063;-77
2022/10/21 16:02:02;;;;;;;6.53;2.70;;;;;;;17.22;100.00;99229.78;12210493;19;20011;-75
2022/10/21 16:06:05;;;;;;;6.82;3.00;;;;;;;17.09;100.00;99231.44;12262590;19;20042;-75
2022/10/21 16:10:28;;;;;;;6.50;3.10;;;;;;;17.01;100.00;99234.91;12230770;19;20006;-77
2022/10/21 16:14:29;;;;;;;9.33;3.20;;;;;;;17.01;100.00;99234.91;12192502;19;20034;-77
2022/10/21 16:18:31;;;;;;;6.57;2.90;;;;;;;16.96;100.00;99237.81;12212496;19;20014;-76
2022/10/21 16:22:33;;;;;;;5.38;2.70;;;;;;;16.87;100.00;99240.47;12187790;19;20014;-76
2022/10/21 16:26:43;;;;;;;4.70;2.55;;;;;;;16.89;100.00;99229.84;12208902;19;20010;-76
2022/10/21 16:30:45;;;;;;;5.32;2.60;;;;;;;16.84;100.00;99249.44;12209349;19;20042;-78
2022/10/21 16:34:53;;;;;;;3.95;2.45;;;;;;;16.79;100.00;99246.72;12187246;19;20625;-76
2022/10/21 16:38:55;;;;;;;5.97;2.38;;;;;;;16.76;100.00;99250.94;12212593;19;20018;-77
2022/10/21 16:42:57;;;;;;;7.68;2.17;;;;;;;16.73;100.00;99251.50;12208490;19;20014;-76
2022/10/21 16:46:59;;;;;;;6.23;2.40;;;;;;;16.69;100.00;99261.59;12191472;19;20443;-76
2022/10/21 16:51:01;;;;;;;8.68;2.85;;;;;;;16.63;100.00;99272.00;12211837;19;20010;-77
2022/10/21 16:55:03;;;;;;;6.25;2.90;;;;;;;16.63;100.00;99273.94;12209088;19;20014;-77
2022/10/21 16:59:05;;;;;;;8.03;2.83;;;;;;;16.59;100.00;99270.91;12187635;19;20033;-76
2022/10/21 17:03:10;;;;;;;5.93;2.90;;;;;;;16.52;100.00;99264.94;12208967;19;20227;-77
2022/10/21 17:07:12;;;;;;;8.63;2.78;;;;;;;16.47;100.00;99278.09;12212266;19;20010;-77
2022/10/21 17:11:20;;;;;;;6.33;2.73;;;;;;;16.44;100.00;99287.03;12193142;19;20400;-78
2022/10/21 17:15:21;;;;;;;6.85;2.90;;;;;;;16.44;100.00;99281.47;12214700;19;20011;-78
2022/10/21 17:19:23;;;;;;;7.95;2.90;;;;;;;16.43;100.00;99285.41;12216630;19;20523;-77
2022/10/21 17:23:27;;;;;;;6.45;2.80;;;;;;;16.41;100.00;99294.03;12189852;19;20031;-77
2022/10/21 17:27:29;;;;;;;4.82;2.50;;;;;;;16.37;100.00;99296.59;12211729;19;20006;-77
2022/10/21 17:31:31;;;;;;;4.03;2.50;;;;;;;16.29;100.00;99291.69;12189933;19;20007;-77
2022/10/21 17:35:32;;;;;;;4.25;2.50;;;;;;;16.21;100.00;99285.97;12211746;19;20035;-78
2022/10/21 17:39:34;;;;;;;7.45;2.70;;;;;;;16.17;100.00;99299.66;12216359;19;20050;-76
2022/10/21 17:43:36;;;;;;;5.82;2.58;;;;;;;16.11;100.00;99300.84;12187377;19;20007;-76
2022/10/21 17:47:39;;;;;;;3.78;2.58;;;;;;;16.09;100.00;99294.75;12212508;19;20019;-77
2022/10/21 17:51:41;;;;;;;8.55;3.08;;;;;;;16.08;100.00;99307.00;12210767;19;20452;-77
2022/10/21 17:55:43;;;;;;;6.75;3.20;;;;;;;16.06;100.00;99307.31;12187013;19;20039;-77
2022/10/21 17:59:47;;;;;;;5.60;2.92;;;;;;;16.08;100.00;99307.00;12207276;19;20006;-77
2022/10/21 18:03:49;;;;;;;8.05;3.70;;;;;;;16.09;100.00;99320.63;12206235;19;20014;-76
2022/10/21 18:07:51;;;;;;;5.18;3.35;;;;;;;16.21;100.00;99322.97;12187785;19;20412;-76
2022/10/21 18:11:53;;;;;;;12.50;4.85;;;;;;;16.29;100.00;99318.66;12203296;19;20009;-76
2022/10/21 18:16:04;;;;;;;10.30;3.17;;;;;;;16.32;100.00;99312.50;12205308;19;20014;-76
2022/10/21 18:20:06;;;;;;;6.78;2.38;;;;;;;16.34;100.00;99316.66;12184748;19;20015;-77
2022/10/21 18:24:08;;;;;;;5.53;2.75;;;;;;;16.31;100.00;99306.13;12206856;19;20574;-76
2022/10/21 18:28:13;;;;;;;5.75;2.17;;;;;;;16.31;100.00;99310.88;12212159;19;20006;-76
2022/10/21 18:32:14;;;;;;;4.93;2.72;;;;;;;16.28;100.00;99315.06;12183847;19;20006;-77
2022/10/21 18:36:16;;;;;;;5.40;2.35;;;;;;;16.28;100.00;99297.56;12211019;19;20006;-77
2022/10/21 18:40:18;;;;;;;6.20;2.40;;;;;;;16.26;100.00;99295.06;12205460;19;20011;-77
2022/10/21 18:44:20;;;;;;;6.95;2.47;;;;;;;16.21;100.00;99299.88;12182342;19;20030;-76
2022/10/21 18:48:21;;;;;;;11.55;3.22;;;;;;;16.19;100.00;99294.63;12207670;19;20007;-76
2022/10/21 18:52:23;;;;;;;7.40;2.40;;;;;;;16.16;100.00;99298.00;12207326;19;20014;-77